sensor_id;sensor_type;location;lat;lon;timestamp;pressure;altitude;pressure_sealevel;temperature
68127;BMP180;54931;52.098;21.006;2022-10-16T00:01:19;100390.80;;;14.10
68127;BMP180;54931;52.098;21.006;2022-10-16T00:03:47;100393.40;;;14.00
68127;BMP180;54931;52.098;21.006;2022-10-16T00:06:16;100393.00;;;14.00
68127;BMP180;54931;52.098;21.006;2022-10-16T00:08:44;100395.20;;;14.10
68127;BMP180;54931;52.098;21.006;2022-10-16T00:11:18;100397.40;;;14.10
68127;BMP180;54931;52.098;21.006;2022-10-16T00:13:47;100396.00;;;14.00
68127;BMP180;54931;52.098;21.006;2022-10-16T00:16:16;100391.40;;;14.00
68127;BMP180;54931;52.098;21.006;2022-10-16T00:18:43;100391.60;;;14.08
68127;BMP180;54931;52.098;21.006;2022-10-16T00:21:15;100386.60;;;14.10
68127;BMP180;54931;52.098;21.006;2022-10-16T00:23:42;100381.40;;;14.00
68127;BMP180;54931;52.098;21.006;2022-10-16T00:26:13;100384.00;;;14.00
68127;BMP180;54931;52.098;21.006;2022-10-16T00:28:40;100384.60;;;14.00
68127;BMP180;54931;52.098;21.006;2022-10-16T00:31:10;100385.40;;;14.00
68127;BMP180;54931;52.098;21.006;2022-10-16T00:33:39;100384.60;;;14.00
68127;BMP180;54931;52.098;21.006;2022-10-16T00:36:07;100385.40;;;14.00
68127;BMP180;54931;52.098;21.006;2022-10-16T00:38:34;100389.00;;;14.00
68127;BMP180;54931;52.098;21.006;2022-10-16T00:41:01;100389.00;;;14.00
68127;BMP180;54931;52.098;21.006;2022-10-16T00:43:41;100394.80;;;14.00
68127;BMP180;54931;52.098;21.006;2022-10-16T00:46:16;100400.40;;;14.00
68127;BMP180;54931;52.098;21.006;2022-10-16T00:48:50;100406.40;;;14.00
68127;BMP180;54931;52.098;21.006;2022-10-16T00:51:22;100406.20;;;14.00
68127;BMP180;54931;52.098;21.006;2022-10-16T00:53:50;100403.20;;;14.00
68127;BMP180;54931;52.098;21.006;2022-10-16T00:56:17;100392.00;;;13.90
68127;BMP180;54931;52.098;21.006;2022-10-16T00:58:45;100395.80;;;13.94
68127;BMP180;54931;52.098;21.006;2022-10-16T01:01:12;100400.80;;;14.00
68127;BMP180;54931;52.098;21.006;2022-10-16T01:03:39;100395.20;;;13.90
68127;BMP180;54931;52.098;21.006;2022-10-16T01:12:24;100409.20;;;14.00
68127;BMP180;54931;52.098;21.006;2022-10-16T01:15:03;100409.60;;;13.92
68127;BMP180;54931;52.098;21.006;2022-10-16T01:17:41;100411.60;;;13.90
68127;BMP180;54931;52.098;21.006;2022-10-16T01:20:31;100412.40;;;14.00
68127;BMP180;54931;52.098;21.006;2022-10-16T01:23:21;100412.60;;;14.00
68127;BMP180;54931;52.098;21.006;2022-10-16T01:28:55;100406.20;;;13.90
68127;BMP180;54931;52.098;21.006;2022-10-16T01:31:26;100414.00;;;13.90
68127;BMP180;54931;52.098;21.006;2022-10-16T01:34:02;100413.20;;;13.90
68127;BMP180;54931;52.098;21.006;2022-10-16T01:36:39;100414.60;;;13.80
68127;BMP180;54931;52.098;21.006;2022-10-16T01:39:09;100420.80;;;13.70
68127;BMP180;54931;52.098;21.006;2022-10-16T01:41:41;100428.00;;;13.70
68127;BMP180;54931;52.098;21.006;2022-10-16T01:44:16;100427.40;;;13.70
68127;BMP180;54931;52.098;21.006;2022-10-16T01:46:48;100429.20;;;13.68
68127;BMP180;54931;52.098;21.006;2022-10-16T01:49:17;100429.20;;;13.60
68127;BMP180;54931;52.098;21.006;2022-10-16T01:51:47;100428.40;;;13.60
68127;BMP180;54931;52.098;21.006;2022-10-16T01:54:17;100427.00;;;13.60
68127;BMP180;54931;52.098;21.006;2022-10-16T01:56:47;100423.80;;;13.64
68127;BMP180;54931;52.098;21.006;2022-10-16T01:59:26;100425.80;;;13.70
68127;BMP180;54931;52.098;21.006;2022-10-16T02:01:59;100419.80;;;13.70
68127;BMP180;54931;52.098;21.006;2022-10-16T02:04:34;100420.60;;;13.70
68127;BMP180;54931;52.098;21.006;2022-10-16T02:07:03;100415.20;;;13.70
68127;BMP180;54931;52.098;21.006;2022-10-16T02:09:32;100414.80;;;13.70
68127;BMP180;54931;52.098;21.006;2022-10-16T02:12:06;100411.80;;;13.70
68127;BMP180;54931;52.098;21.006;2022-10-16T02:14:38;100415.20;;;13.70
68127;BMP180;54931;52.098;21.006;2022-10-16T02:17:11;100411.60;;;13.72
68127;BMP180;54931;52.098;21.006;2022-10-16T02:19:39;100414.60;;;13.70
68127;BMP180;54931;52.098;21.006;2022-10-16T02:22:09;100413.00;;;13.70
68127;BMP180;54931;52.098;21.006;2022-10-16T02:27:48;100410.20;;;13.80
68127;BMP180;54931;52.098;21.006;2022-10-16T02:33:02;100412.00;;;13.70
68127;BMP180;54931;52.098;21.006;2022-10-16T02:35:30;100406.80;;;13.70
68127;BMP180;54931;52.098;21.006;2022-10-16T02:37:58;100410.20;;;13.70
68127;BMP180;54931;52.098;21.006;2022-10-16T02:40:26;100412.60;;;13.70
68127;BMP180;54931;52.098;21.006;2022-10-16T02:42:55;100416.80;;;13.70
68127;BMP180;54931;52.098;21.006;2022-10-16T02:45:23;100420.40;;;13.70
68127;BMP180;54931;52.098;21.006;2022-10-16T02:47:50;100421.60;;;13.70
68127;BMP180;54931;52.098;21.006;2022-10-16T02:50:17;100423.00;;;13.70
68127;BMP180;54931;52.098;21.006;2022-10-16T02:52:44;100426.40;;;13.70
68127;BMP180;54931;52.098;21.006;2022-10-16T02:55:11;100428.20;;;13.70
68127;BMP180;54931;52.098;21.006;2022-10-16T02:57:38;100430.80;;;13.70
68127;BMP180;54931;52.098;21.006;2022-10-16T03:00:09;100429.40;;;13.70
68127;BMP180;54931;52.098;21.006;2022-10-16T03:02:36;100429.20;;;13.70
68127;BMP180;54931;52.098;21.006;2022-10-16T03:05:03;100431.00;;;13.70
68127;BMP180;54931;52.098;21.006;2022-10-16T03:07:30;100438.40;;;13.70
68127;BMP180;54931;52.098;21.006;2022-10-16T03:09:57;100441.00;;;13.70
68127;BMP180;54931;52.098;21.006;2022-10-16T03:12:27;100436.40;;;13.70
68127;BMP180;54931;52.098;21.006;2022-10-16T03:14:55;100433.00;;;13.70
68127;BMP180;54931;52.098;21.006;2022-10-16T03:17:23;100437.20;;;13.70
68127;BMP180;54931;52.098;21.006;2022-10-16T03:19:51;100441.00;;;13.70
68127;BMP180;54931;52.098;21.006;2022-10-16T03:22:18;100438.40;;;13.70
68127;BMP180;54931;52.098;21.006;2022-10-16T03:24:44;100443.80;;;13.70
68127;BMP180;54931;52.098;21.006;2022-10-16T03:27:11;100442.40;;;13.70
68127;BMP180;54931;52.098;21.006;2022-10-16T03:29:38;100449.80;;;13.70
68127;BMP180;54931;52.098;21.006;2022-10-16T03:32:05;100449.00;;;13.70
68127;BMP180;54931;52.098;21.006;2022-10-16T03:34:32;100456.20;;;13.68
68127;BMP180;54931;52.098;21.006;2022-10-16T03:36:59;100460.20;;;13.70
68127;BMP180;54931;52.098;21.006;2022-10-16T03:39:26;100459.00;;;13.70
68127;BMP180;54931;52.098;21.006;2022-10-16T03:41:53;100458.80;;;13.70
68127;BMP180;54931;52.098;21.006;2022-10-16T03:44:20;100459.80;;;13.70
68127;BMP180;54931;52.098;21.006;2022-10-16T03:46:47;100461.20;;;13.60
68127;BMP180;54931;52.098;21.006;2022-10-16T03:49:14;100457.60;;;13.70
68127;BMP180;54931;52.098;21.006;2022-10-16T03:51:40;100465.80;;;13.70
68127;BMP180;54931;52.098;21.006;2022-10-16T03:54:07;100466.20;;;13.70
68127;BMP180;54931;52.098;21.006;2022-10-16T03:56:34;100467.80;;;13.60
68127;BMP180;54931;52.098;21.006;2022-10-16T03:59:01;100466.00;;;13.60
68127;BMP180;54931;52.098;21.006;2022-10-16T04:01:27;100465.00;;;13.70
68127;BMP180;54931;52.098;21.006;2022-10-16T04:03:54;100461.60;;;13.70
68127;BMP180;54931;52.098;21.006;2022-10-16T04:06:21;100462.00;;;13.60
68127;BMP180;54931;52.098;21.006;2022-10-16T04:08:48;100468.20;;;13.60
68127;BMP180;54931;52.098;21.006;2022-10-16T04:11:15;100472.80;;;13.60
68127;BMP180;54931;52.098;21.006;2022-10-16T04:13:42;100476.80;;;13.58
68127;BMP180;54931;52.098;21.006;2022-10-16T04:16:10;100474.00;;;13.50
68127;BMP180;54931;52.098;21.006;2022-10-16T04:18:36;100468.80;;;13.40
68127;BMP180;54931;52.098;21.006;2022-10-16T04:21:07;100465.60;;;13.40
68127;BMP180;54931;52.098;21.006;2022-10-16T04:23:34;100470.80;;;13.40
68127;BMP180;54931;52.098;21.006;2022-10-16T04:26:01;100472.40;;;13.30
68127;BMP180;54931;52.098;21.006;2022-10-16T04:28:28;100478.40;;;13.20
68127;BMP180;54931;52.098;21.006;2022-10-16T04:30:55;100479.40;;;13.20
68127;BMP180;54931;52.098;21.006;2022-10-16T04:33:23;100480.80;;;13.20
68127;BMP180;54931;52.098;21.006;2022-10-16T04:35:56;100488.60;;;13.20
68127;BMP180;54931;52.098;21.006;2022-10-16T04:38:23;100491.20;;;13.20
68127;BMP180;54931;52.098;21.006;2022-10-16T04:40:50;100488.20;;;13.10
68127;BMP180;54931;52.098;21.006;2022-10-16T04:43:17;100491.80;;;13.00
68127;BMP180;54931;52.098;21.006;2022-10-16T04:45:43;100488.60;;;12.92
68127;BMP180;54931;52.098;21.006;2022-10-16T04:48:10;100491.20;;;12.90
68127;BMP180;54931;52.098;21.006;2022-10-16T04:50:37;100489.40;;;12.80
68127;BMP180;54931;52.098;21.006;2022-10-16T04:53:05;100490.40;;;12.72
68127;BMP180;54931;52.098;21.006;2022-10-16T04:55:33;100492.20;;;12.70
68127;BMP180;54931;52.098;21.006;2022-10-16T04:58:00;100491.60;;;12.68
68127;BMP180;54931;52.098;21.006;2022-10-16T05:00:27;100492.20;;;12.60
68127;BMP180;54931;52.098;21.006;2022-10-16T05:02:54;100493.60;;;12.50
68127;BMP180;54931;52.098;21.006;2022-10-16T05:05:21;100497.00;;;12.50
68127;BMP180;54931;52.098;21.006;2022-10-16T05:07:48;100500.40;;;12.48
68127;BMP180;54931;52.098;21.006;2022-10-16T05:10:16;100501.20;;;12.46
68127;BMP180;54931;52.098;21.006;2022-10-16T05:12:44;100503.00;;;12.40
68127;BMP180;54931;52.098;21.006;2022-10-16T05:15:11;100506.80;;;12.40
68127;BMP180;54931;52.098;21.006;2022-10-16T05:17:38;100506.60;;;12.40
68127;BMP180;54931;52.098;21.006;2022-10-16T05:20:05;100509.00;;;12.40
68127;BMP180;54931;52.098;21.006;2022-10-16T05:22:32;100511.60;;;12.40
68127;BMP180;54931;52.098;21.006;2022-10-16T05:24:59;100515.20;;;12.40
68127;BMP180;54931;52.098;21.006;2022-10-16T05:27:26;100517.20;;;12.40
68127;BMP180;54931;52.098;21.006;2022-10-16T05:29:53;100522.60;;;12.30
68127;BMP180;54931;52.098;21.006;2022-10-16T05:32:20;100517.20;;;12.36
68127;BMP180;54931;52.098;21.006;2022-10-16T05:34:47;100521.40;;;12.40
68127;BMP180;54931;52.098;21.006;2022-10-16T05:37:14;100518.60;;;12.40
68127;BMP180;54931;52.098;21.006;2022-10-16T05:39:40;100516.00;;;12.40
68127;BMP180;54931;52.098;21.006;2022-10-16T05:42:07;100515.80;;;12.40
68127;BMP180;54931;52.098;21.006;2022-10-16T05:44:34;100510.60;;;12.40
68127;BMP180;54931;52.098;21.006;2022-10-16T05:47:01;100509.20;;;12.40
68127;BMP180;54931;52.098;21.006;2022-10-16T05:49:28;100512.00;;;12.40
68127;BMP180;54931;52.098;21.006;2022-10-16T05:51:55;100511.40;;;12.40
68127;BMP180;54931;52.098;21.006;2022-10-16T05:54:22;100522.20;;;12.40
68127;BMP180;54931;52.098;21.006;2022-10-16T05:56:49;100522.20;;;12.50
68127;BMP180;54931;52.098;21.006;2022-10-16T05:59:15;100527.00;;;12.50
68127;BMP180;54931;52.098;21.006;2022-10-16T06:01:42;100531.00;;;12.60
68127;BMP180;54931;52.098;21.006;2022-10-16T06:04:09;100534.00;;;12.60
68127;BMP180;54931;52.098;21.006;2022-10-16T06:06:36;100539.00;;;12.68
68127;BMP180;54931;52.098;21.006;2022-10-16T06:09:04;100543.20;;;12.70
68127;BMP180;54931;52.098;21.006;2022-10-16T06:11:32;100543.40;;;12.80
68127;BMP180;54931;52.098;21.006;2022-10-16T06:14:01;100542.20;;;12.86
68127;BMP180;54931;52.098;21.006;2022-10-16T06:16:29;100544.40;;;13.00
68127;BMP180;54931;52.098;21.006;2022-10-16T06:18:56;100545.80;;;13.32
68127;BMP180;54931;52.098;21.006;2022-10-16T06:21:24;100542.60;;;13.40
68127;BMP180;54931;52.098;21.006;2022-10-16T06:23:52;100545.00;;;13.38
68127;BMP180;54931;52.098;21.006;2022-10-16T06:26:22;100551.00;;;13.30
68127;BMP180;54931;52.098;21.006;2022-10-16T06:28:49;100549.60;;;13.30
68127;BMP180;54931;52.098;21.006;2022-10-16T06:31:17;100552.20;;;13.30
68127;BMP180;54931;52.098;21.006;2022-10-16T06:33:44;100548.40;;;13.30
68127;BMP180;54931;52.098;21.006;2022-10-16T06:36:15;100547.60;;;13.32
68127;BMP180;54931;52.098;21.006;2022-10-16T06:38:43;100554.00;;;13.56
68127;BMP180;54931;52.098;21.006;2022-10-16T06:41:15;100555.20;;;13.88
68127;BMP180;54931;52.098;21.006;2022-10-16T06:43:43;100559.00;;;14.00
68127;BMP180;54931;52.098;21.006;2022-10-16T06:46:13;100556.40;;;13.90
68127;BMP180;54931;52.098;21.006;2022-10-16T06:48:40;100554.80;;;13.90
68127;BMP180;54931;52.098;21.006;2022-10-16T06:51:21;100555.40;;;13.90
68127;BMP180;54931;52.098;21.006;2022-10-16T06:53:51;100564.60;;;14.10
68127;BMP180;54931;52.098;21.006;2022-10-16T06:56:21;100568.60;;;14.10
68127;BMP180;54931;52.098;21.006;2022-10-16T06:58:49;100568.60;;;14.20
68127;BMP180;54931;52.098;21.006;2022-10-16T07:01:18;100568.80;;;14.34
68127;BMP180;54931;52.098;21.006;2022-10-16T07:03:46;100575.20;;;14.60
68127;BMP180;54931;52.098;21.006;2022-10-16T07:06:17;100577.20;;;14.80
68127;BMP180;54931;52.098;21.006;2022-10-16T07:08:46;100587.00;;;14.82
68127;BMP180;54931;52.098;21.006;2022-10-16T07:11:18;100583.80;;;14.90
68127;BMP180;54931;52.098;21.006;2022-10-16T07:13:46;100586.20;;;15.00
68127;BMP180;54931;52.098;21.006;2022-10-16T07:16:16;100586.40;;;15.00
68127;BMP180;54931;52.098;21.006;2022-10-16T07:18:43;100590.60;;;14.90
68127;BMP180;54931;52.098;21.006;2022-10-16T07:21:17;100595.20;;;14.90
68127;BMP180;54931;52.098;21.006;2022-10-16T07:23:44;100593.20;;;15.00
68127;BMP180;54931;52.098;21.006;2022-10-16T07:26:11;100591.20;;;14.98
68127;BMP180;54931;52.098;21.006;2022-10-16T07:28:38;100592.60;;;14.90
68127;BMP180;54931;52.098;21.006;2022-10-16T07:31:09;100593.80;;;15.00
68127;BMP180;54931;52.098;21.006;2022-10-16T07:33:38;100598.60;;;15.10
68127;BMP180;54931;52.098;21.006;2022-10-16T07:36:06;100581.40;;;15.10
68127;BMP180;54931;52.098;21.006;2022-10-16T07:38:33;100571.60;;;15.10
68127;BMP180;54931;52.098;21.006;2022-10-16T07:41:02;100564.80;;;15.50
68127;BMP180;54931;52.098;21.006;2022-10-16T07:43:30;100572.80;;;16.26
68127;BMP180;54931;52.098;21.006;2022-10-16T07:45:57;100585.40;;;16.86
68127;BMP180;54931;52.098;21.006;2022-10-16T07:48:28;100589.80;;;17.16
68127;BMP180;54931;52.098;21.006;2022-10-16T07:51:02;100599.00;;;17.44
68127;BMP180;54931;52.098;21.006;2022-10-16T07:53:30;100597.20;;;17.74
68127;BMP180;54931;52.098;21.006;2022-10-16T07:56:01;100598.00;;;18.02
68127;BMP180;54931;52.098;21.006;2022-10-16T07:58:29;100603.20;;;18.00
68127;BMP180;54931;52.098;21.006;2022-10-16T08:00:57;100608.80;;;18.20
68127;BMP180;54931;52.098;21.006;2022-10-16T08:03:25;100608.20;;;18.50
68127;BMP180;54931;52.098;21.006;2022-10-16T08:05:52;100609.80;;;18.60
68127;BMP180;54931;52.098;21.006;2022-10-16T08:08:19;100610.80;;;18.68
68127;BMP180;54931;52.098;21.006;2022-10-16T08:10:46;100608.00;;;18.70
68127;BMP180;54931;52.098;21.006;2022-10-16T08:13:14;100605.40;;;18.90
68127;BMP180;54931;52.098;21.006;2022-10-16T08:15:43;100602.60;;;19.10
68127;BMP180;54931;52.098;21.006;2022-10-16T08:18:12;100612.20;;;19.20
68127;BMP180;54931;52.098;21.006;2022-10-16T08:20:40;100619.20;;;19.20
68127;BMP180;54931;52.098;21.006;2022-10-16T08:23:09;100619.60;;;19.32
68127;BMP180;54931;52.098;21.006;2022-10-16T08:25:37;100625.20;;;19.70
68127;BMP180;54931;52.098;21.006;2022-10-16T08:28:05;100628.80;;;19.80
68127;BMP180;54931;52.098;21.006;2022-10-16T08:30:33;100634.00;;;19.70
68127;BMP180;54931;52.098;21.006;2022-10-16T08:33:01;100630.80;;;19.70
68127;BMP180;54931;52.098;21.006;2022-10-16T08:35:28;100627.00;;;19.70
68127;BMP180;54931;52.098;21.006;2022-10-16T08:37:55;100628.60;;;19.70
68127;BMP180;54931;52.098;21.006;2022-10-16T08:40:24;100634.60;;;19.68
68127;BMP180;54931;52.098;21.006;2022-10-16T08:48:52;100640.60;;;18.60
68127;BMP180;54931;52.098;21.006;2022-10-16T08:51:29;100646.80;;;18.70
68127;BMP180;54931;52.098;21.006;2022-10-16T08:56:38;100644.40;;;18.50
68127;BMP180;54931;52.098;21.006;2022-10-16T08:59:10;100649.40;;;18.50
68127;BMP180;54931;52.098;21.006;2022-10-16T09:01:40;100658.80;;;18.40
68127;BMP180;54931;52.098;21.006;2022-10-16T09:04:58;100658.60;;;18.40
68127;BMP180;54931;52.098;21.006;2022-10-16T09:07:48;100660.60;;;18.40
68127;BMP180;54931;52.098;21.006;2022-10-16T09:10:42;100662.60;;;18.60
68127;BMP180;54931;52.098;21.006;2022-10-16T09:16:12;100681.40;;;19.08
68127;BMP180;54931;52.098;21.006;2022-10-16T09:21:19;100676.20;;;19.22
68127;BMP180;54931;52.098;21.006;2022-10-16T09:23:48;100671.40;;;19.30
68127;BMP180;54931;52.098;21.006;2022-10-16T09:26:16;100662.00;;;19.58
68127;BMP180;54931;52.098;21.006;2022-10-16T09:28:46;100654.60;;;19.94
68127;BMP180;54931;52.098;21.006;2022-10-16T09:31:21;100652.40;;;20.26
68127;BMP180;54931;52.098;21.006;2022-10-16T09:33:57;100646.80;;;20.62
68127;BMP180;54931;52.098;21.006;2022-10-16T09:36:25;100648.20;;;20.88
68127;BMP180;54931;52.098;21.006;2022-10-16T09:39:06;100647.40;;;21.04
68127;BMP180;54931;52.098;21.006;2022-10-16T09:41:39;100652.80;;;21.20
68127;BMP180;54931;52.098;21.006;2022-10-16T09:44:30;100651.20;;;21.20
68127;BMP180;54931;52.098;21.006;2022-10-16T09:47:10;100648.60;;;21.10
68127;BMP180;54931;52.098;21.006;2022-10-16T09:49:38;100654.20;;;21.18
68127;BMP180;54931;52.098;21.006;2022-10-16T09:52:13;100654.00;;;21.50
68127;BMP180;54931;52.098;21.006;2022-10-16T09:54:58;100655.20;;;21.80
68127;BMP180;54931;52.098;21.006;2022-10-16T09:57:26;100651.00;;;21.90
68127;BMP180;54931;52.098;21.006;2022-10-16T09:59:55;100658.00;;;21.88
68127;BMP180;54931;52.098;21.006;2022-10-16T10:02:35;100656.20;;;21.70
68127;BMP180;54931;52.098;21.006;2022-10-16T10:05:04;100651.60;;;21.50
68127;BMP180;54931;52.098;21.006;2022-10-16T10:07:43;100652.20;;;21.50
68127;BMP180;54931;52.098;21.006;2022-10-16T10:10:27;100651.60;;;21.50
68127;BMP180;54931;52.098;21.006;2022-10-16T10:12:56;100653.60;;;21.40
68127;BMP180;54931;52.098;21.006;2022-10-16T10:15:24;100656.40;;;21.30
68127;BMP180;54931;52.098;21.006;2022-10-16T10:17:55;100657.80;;;21.22
68127;BMP180;54931;52.098;21.006;2022-10-16T10:20:25;100664.20;;;21.38
68127;BMP180;54931;52.098;21.006;2022-10-16T10:22:54;100663.60;;;21.40
68127;BMP180;54931;52.098;21.006;2022-10-16T10:41:51;100651.40;;;21.50
68127;BMP180;54931;52.098;21.006;2022-10-16T10:44:54;100646.60;;;21.66
68127;BMP180;54931;52.098;21.006;2022-10-16T10:50:31;100653.40;;;21.80
68127;BMP180;54931;52.098;21.006;2022-10-16T10:53:30;100654.80;;;21.70
68127;BMP180;54931;52.098;21.006;2022-10-16T10:59:28;100648.40;;;21.90
68127;BMP180;54931;52.098;21.006;2022-10-16T11:02:01;100654.40;;;21.80
68127;BMP180;54931;52.098;21.006;2022-10-16T11:05:00;100655.60;;;21.70
68127;BMP180;54931;52.098;21.006;2022-10-16T11:07:49;100655.00;;;21.80
68127;BMP180;54931;52.098;21.006;2022-10-16T11:10:28;100655.00;;;21.50
68127;BMP180;54931;52.098;21.006;2022-10-16T11:16:03;100648.60;;;21.78
68127;BMP180;54931;52.098;21.006;2022-10-16T11:18:45;100652.00;;;21.88
68127;BMP180;54931;52.098;21.006;2022-10-16T11:21:16;100645.40;;;21.80
68127;BMP180;54931;52.098;21.006;2022-10-16T11:23:59;100638.40;;;21.60
68127;BMP180;54931;52.098;21.006;2022-10-16T11:26:30;100642.00;;;21.40
68127;BMP180;54931;52.098;21.006;2022-10-16T11:29:00;100644.20;;;21.24
68127;BMP180;54931;52.098;21.006;2022-10-16T11:31:45;100651.80;;;21.40
68127;BMP180;54931;52.098;21.006;2022-10-16T11:34:35;100656.40;;;21.50
68127;BMP180;54931;52.098;21.006;2022-10-16T11:37:53;100663.60;;;21.40
68127;BMP180;54931;52.098;21.006;2022-10-16T11:40:25;100659.20;;;21.40
68127;BMP180;54931;52.098;21.006;2022-10-16T11:43:32;100654.60;;;21.20
68127;BMP180;54931;52.098;21.006;2022-10-16T11:46:20;100654.00;;;21.02
68127;BMP180;54931;52.098;21.006;2022-10-16T11:48:52;100658.20;;;21.00
68127;BMP180;54931;52.098;21.006;2022-10-16T11:51:26;100655.80;;;20.90
68127;BMP180;54931;52.098;21.006;2022-10-16T11:54:18;100658.00;;;20.90
68127;BMP180;54931;52.098;21.006;2022-10-16T11:56:51;100650.20;;;20.90
68127;BMP180;54931;52.098;21.006;2022-10-16T12:08:11;100638.20;;;21.40
68127;BMP180;54931;52.098;21.006;2022-10-16T12:10:41;100639.00;;;21.50
68127;BMP180;54931;52.098;21.006;2022-10-16T12:13:47;100638.20;;;21.60
68127;BMP180;54931;52.098;21.006;2022-10-16T12:18:44;100649.40;;;21.70
68127;BMP180;54931;52.098;21.006;2022-10-16T12:21:13;100649.20;;;21.70
68127;BMP180;54931;52.098;21.006;2022-10-16T12:23:53;100649.00;;;21.60
68127;BMP180;54931;52.098;21.006;2022-10-16T12:26:29;100654.20;;;21.40
68127;BMP180;54931;52.098;21.006;2022-10-16T12:29:12;100653.00;;;21.20
68127;BMP180;54931;52.098;21.006;2022-10-16T12:31:45;100651.20;;;21.10
68127;BMP180;54931;52.098;21.006;2022-10-16T12:34:36;100656.60;;;21.00
68127;BMP180;54931;52.098;21.006;2022-10-16T12:37:14;100655.20;;;21.06
68127;BMP180;54931;52.098;21.006;2022-10-16T12:39:46;100661.00;;;21.00
68127;BMP180;54931;52.098;21.006;2022-10-16T12:44:56;100650.80;;;21.22
68127;BMP180;54931;52.098;21.006;2022-10-16T12:47:36;100657.80;;;21.40
68127;BMP180;54931;52.098;21.006;2022-10-16T12:50:43;100659.80;;;21.70
68127;BMP180;54931;52.098;21.006;2022-10-16T12:53:25;100659.20;;;21.88
68127;BMP180;54931;52.098;21.006;2022-10-16T12:58:57;100663.20;;;21.98
68127;BMP180;54931;52.098;21.006;2022-10-16T13:07:53;100674.20;;;22.14
68127;BMP180;54931;52.098;21.006;2022-10-16T13:10:39;100668.60;;;22.10
68127;BMP180;54931;52.098;21.006;2022-10-16T13:13:15;100670.80;;;21.90
68127;BMP180;54931;52.098;21.006;2022-10-16T13:24:39;100668.80;;;21.06
68127;BMP180;54931;52.098;21.006;2022-10-16T13:29:53;100684.20;;;20.92
68127;BMP180;54931;52.098;21.006;2022-10-16T13:32:22;100686.20;;;20.90
68127;BMP180;54931;52.098;21.006;2022-10-16T13:34:49;100688.60;;;20.80
68127;BMP180;54931;52.098;21.006;2022-10-16T13:37:21;100693.00;;;20.80
68127;BMP180;54931;52.098;21.006;2022-10-16T13:39:49;100694.60;;;20.80
68127;BMP180;54931;52.098;21.006;2022-10-16T13:42:26;100693.20;;;20.80
68127;BMP180;54931;52.098;21.006;2022-10-16T13:44:55;100698.80;;;20.80
68127;BMP180;54931;52.098;21.006;2022-10-16T13:47:24;100699.00;;;20.80
68127;BMP180;54931;52.098;21.006;2022-10-16T13:50:06;100692.80;;;20.70
68127;BMP180;54931;52.098;21.006;2022-10-16T13:52:33;100701.40;;;20.60
68127;BMP180;54931;52.098;21.006;2022-10-16T13:55:00;100696.80;;;20.60
68127;BMP180;54931;52.098;21.006;2022-10-16T13:57:27;100695.80;;;20.50
68127;BMP180;54931;52.098;21.006;2022-10-16T13:59:54;100698.60;;;20.50
68127;BMP180;54931;52.098;21.006;2022-10-16T14:02:34;100698.20;;;20.40
68127;BMP180;54931;52.098;21.006;2022-10-16T14:05:04;100702.20;;;20.30
68127;BMP180;54931;52.098;21.006;2022-10-16T14:07:34;100698.20;;;20.30
68127;BMP180;54931;52.098;21.006;2022-10-16T14:10:07;100692.20;;;20.20
68127;BMP180;54931;52.098;21.006;2022-10-16T14:12:44;100690.40;;;20.10
68127;BMP180;54931;52.098;21.006;2022-10-16T14:15:17;100687.00;;;20.00
68127;BMP180;54931;52.098;21.006;2022-10-16T14:17:48;100680.60;;;20.00
68127;BMP180;54931;52.098;21.006;2022-10-16T14:20:16;100688.40;;;19.90
68127;BMP180;54931;52.098;21.006;2022-10-16T14:22:43;100695.80;;;19.90
68127;BMP180;54931;52.098;21.006;2022-10-16T14:25:31;100699.40;;;19.80
68127;BMP180;54931;52.098;21.006;2022-10-16T14:28:04;100704.60;;;19.70
68127;BMP180;54931;52.098;21.006;2022-10-16T14:30:34;100704.60;;;19.70
68127;BMP180;54931;52.098;21.006;2022-10-16T14:33:05;100712.00;;;19.60
68127;BMP180;54931;52.098;21.006;2022-10-16T14:35:37;100708.00;;;19.54
68127;BMP180;54931;52.098;21.006;2022-10-16T14:38:06;100715.80;;;19.50
68127;BMP180;54931;52.098;21.006;2022-10-16T14:40:47;100718.20;;;19.50
68127;BMP180;54931;52.098;21.006;2022-10-16T14:43:22;100722.60;;;19.40
68127;BMP180;54931;52.098;21.006;2022-10-16T14:45:54;100718.40;;;19.40
68127;BMP180;54931;52.098;21.006;2022-10-16T14:48:22;100716.40;;;19.30
68127;BMP180;54931;52.098;21.006;2022-10-16T14:50:49;100712.00;;;19.30
68127;BMP180;54931;52.098;21.006;2022-10-16T14:53:17;100717.40;;;19.32
68127;BMP180;54931;52.098;21.006;2022-10-16T14:55:44;100717.00;;;19.40
68127;BMP180;54931;52.098;21.006;2022-10-16T14:58:21;100712.80;;;19.40
68127;BMP180;54931;52.098;21.006;2022-10-16T15:00:49;100716.00;;;19.30
68127;BMP180;54931;52.098;21.006;2022-10-16T15:03:16;100713.20;;;19.20
68127;BMP180;54931;52.098;21.006;2022-10-16T15:05:43;100715.20;;;19.20
68127;BMP180;54931;52.098;21.006;2022-10-16T15:08:10;100714.80;;;19.10
68127;BMP180;54931;52.098;21.006;2022-10-16T15:10:43;100715.00;;;19.00
68127;BMP180;54931;52.098;21.006;2022-10-16T15:13:13;100709.00;;;19.00
68127;BMP180;54931;52.098;21.006;2022-10-16T15:15:45;100709.00;;;19.00
68127;BMP180;54931;52.098;21.006;2022-10-16T15:18:13;100713.20;;;19.00
68127;BMP180;54931;52.098;21.006;2022-10-16T15:20:41;100716.80;;;18.90
68127;BMP180;54931;52.098;21.006;2022-10-16T15:23:17;100724.40;;;18.90
68127;BMP180;54931;52.098;21.006;2022-10-16T15:25:49;100730.60;;;18.80
68127;BMP180;54931;52.098;21.006;2022-10-16T15:28:19;100735.80;;;18.70
68127;BMP180;54931;52.098;21.006;2022-10-16T15:30:49;100738.60;;;18.70
68127;BMP180;54931;52.098;21.006;2022-10-16T15:33:20;100739.60;;;18.60
68127;BMP180;54931;52.098;21.006;2022-10-16T15:35:48;100737.80;;;18.62
68127;BMP180;54931;52.098;21.006;2022-10-16T15:38:17;100738.40;;;18.70